createdAt,value
2022-12-17T00:00:31.830Z,29.50
2022-12-17T00:01:32.624Z,23.20
2022-12-17T00:02:32.185Z,25.70
2022-12-17T00:03:32.028Z,24.10
2022-12-17T00:04:31.763Z,25.60
2022-12-17T00:05:31.752Z,26.00
2022-12-17T00:06:31.764Z,24.30
2022-12-17T00:07:31.743Z,27.70
2022-12-17T00:08:31.766Z,27.70
2022-12-17T00:09:31.942Z,24.70
2022-12-17T00:10:31.963Z,29.50
2022-12-17T00:11:31.719Z,28.50
2022-12-17T00:12:31.971Z,23.40
2022-12-17T00:13:32.004Z,29.40
2022-12-17T00:14:32.181Z,23.30
2022-12-17T00:15:32.194Z,25.10
2022-12-17T00:16:32.265Z,25.60
2022-12-17T00:17:31.684Z,23.90
2022-12-17T00:18:31.708Z,25.50
2022-12-17T00:19:31.671Z,25.30
2022-12-17T00:20:31.677Z,27.30
2022-12-17T00:21:31.658Z,25.80
2022-12-17T00:22:31.656Z,23.40
2022-12-17T00:23:31.658Z,26.50
2022-12-17T00:24:32.059Z,27.40
2022-12-17T00:25:31.635Z,25.30
2022-12-17T00:26:31.637Z,26.80
2022-12-17T00:27:31.625Z,23.90
2022-12-17T00:28:31.665Z,31.80
2022-12-17T00:29:31.614Z,26.00
2022-12-17T00:30:31.613Z,28.10
2022-12-17T00:31:31.632Z,24.00
2022-12-17T00:32:31.598Z,29.00
2022-12-17T00:33:31.612Z,25.00
2022-12-17T00:34:31.623Z,28.60
2022-12-17T00:35:31.580Z,23.70
2022-12-17T00:36:31.719Z,27.20
2022-12-17T00:37:31.562Z,28.30
2022-12-17T00:38:31.569Z,27.60
2022-12-17T00:39:31.570Z,32.40
2022-12-17T00:40:31.549Z,26.60
2022-12-17T00:41:31.549Z,26.60
2022-12-17T00:42:31.550Z,32.10
2022-12-17T00:43:31.610Z,27.60
2022-12-17T00:44:31.550Z,31.60
2022-12-17T00:45:31.528Z,30.00
2022-12-17T00:46:31.581Z,21.80
2022-12-17T00:47:31.515Z,30.10
2022-12-17T00:48:31.514Z,27.50
2022-12-17T00:49:31.586Z,26.80
2022-12-17T00:50:31.546Z,29.70
2022-12-17T00:51:31.495Z,23.80
2022-12-17T00:52:31.495Z,24.80
2022-12-17T00:53:31.483Z,28.20
2022-12-17T00:54:31.486Z,22.70
2022-12-17T00:55:31.840Z,28.60
2022-12-17T00:56:31.461Z,21.50
2022-12-17T00:57:31.452Z,27.00
2022-12-17T00:58:31.851Z,29.20
2022-12-17T00:59:31.461Z,28.10
2022-12-17T01:00:31.538Z,25.20
2022-12-17T01:01:31.542Z,28.40
2022-12-17T01:02:31.506Z,25.70
2022-12-17T01:03:31.417Z,27.30
2022-12-17T01:04:31.895Z,29.60
2022-12-17T01:05:31.402Z,25.30
2022-12-17T01:06:31.449Z,29.70
2022-12-17T01:07:31.404Z,22.20
2022-12-17T01:08:31.404Z,27.00
2022-12-17T01:09:31.409Z,26.20
2022-12-17T01:10:31.386Z,30.70
2022-12-17T01:11:31.379Z,26.80
2022-12-17T01:12:31.367Z,23.10
2022-12-17T01:13:31.361Z,29.80
2022-12-17T01:14:31.395Z,27.70
2022-12-17T01:15:31.360Z,28.20
2022-12-17T01:16:31.448Z,28.00
2022-12-17T01:17:31.337Z,28.20
2022-12-17T01:18:31.825Z,26.40
2022-12-17T01:19:32.042Z,27.80
2022-12-17T01:20:31.334Z,27.60
2022-12-17T01:21:31.320Z,23.20
2022-12-17T01:22:31.324Z,26.50
2022-12-17T01:23:31.322Z,25.20
2022-12-17T01:24:31.391Z,27.30
2022-12-17T01:25:31.462Z,24.70
2022-12-17T01:26:31.302Z,25.30
2022-12-17T01:27:31.353Z,26.50
2022-12-17T01:28:31.318Z,24.60
2022-12-17T01:29:31.277Z,28.80
2022-12-17T01:30:31.319Z,27.70
2022-12-17T01:31:35.055Z,25.20
2022-12-17T01:32:31.258Z,31.90
2022-12-17T01:33:31.873Z,19.70
2022-12-17T01:34:31.929Z,26.20
2022-12-17T01:35:31.258Z,30.90
2022-12-17T01:36:31.250Z,28.90
2022-12-17T01:37:31.226Z,28.30
2022-12-17T01:38:31.245Z,25.80
2022-12-17T01:39:32.175Z,28.50
2022-12-17T01:40:31.237Z,27.10
2022-12-17T01:41:31.205Z,31.70
2022-12-17T01:42:31.205Z,27.20
2022-12-17T01:43:31.204Z,30.60
2022-12-17T01:44:31.213Z,24.60
2022-12-17T01:45:31.268Z,31.60
2022-12-17T01:46:31.953Z,32.90
2022-12-17T01:47:32.165Z,31.20
2022-12-17T01:48:31.222Z,31.50
2022-12-17T01:49:31.571Z,27.80
2022-12-17T01:50:31.221Z,30.20
2022-12-17T01:51:31.222Z,24.80
2022-12-17T01:52:32.200Z,28.80
2022-12-17T01:53:32.253Z,29.50
2022-12-17T01:54:32.010Z,27.60
2022-12-17T01:55:32.168Z,28.40
2022-12-17T01:56:32.636Z,27.00
2022-12-17T01:57:31.977Z,25.10
2022-12-17T01:58:31.227Z,31.30
2022-12-17T01:59:31.138Z,27.40
2022-12-17T02:00:31.246Z,31.00
2022-12-17T02:01:31.365Z,28.50
2022-12-17T02:02:31.464Z,32.80
2022-12-17T02:03:31.084Z,31.60
2022-12-17T02:04:31.329Z,31.20
2022-12-17T02:05:31.478Z,35.00
2022-12-17T02:06:31.085Z,30.70
2022-12-17T02:07:31.400Z,33.40
2022-12-17T02:08:31.115Z,34.80
2022-12-17T02:09:31.493Z,33.90
2022-12-17T02:10:31.570Z,42.90
2022-12-17T02:11:31.505Z,48.40
2022-12-17T02:12:31.104Z,43.70
2022-12-17T02:13:31.060Z,42.40
2022-12-17T02:14:31.611Z,50.90
2022-12-17T02:15:31.800Z,45.90
2022-12-17T02:16:31.974Z,50.40
2022-12-17T02:17:31.011Z,49.30
2022-12-17T02:18:31.959Z,40.60
2022-12-17T02:19:31.910Z,44.20
2022-12-17T02:20:32.038Z,51.10
2022-12-17T02:21:31.361Z,44.80
2022-12-17T02:22:31.581Z,46.40
2022-12-17T02:23:32.217Z,45.00
2022-12-17T02:24:31.951Z,54.80
2022-12-17T02:25:31.850Z,41.90
2022-12-17T02:26:31.016Z,46.10
2022-12-17T02:27:31.917Z,43.30
2022-12-17T02:28:31.814Z,48.60
2022-12-17T02:29:31.974Z,40.90
2022-12-17T02:30:31.875Z,44.40
2022-12-17T02:31:31.819Z,43.20
2022-12-17T02:32:31.944Z,45.30
2022-12-17T02:33:32.050Z,56.10
2022-12-17T02:34:31.752Z,52.20
2022-12-17T02:35:31.913Z,59.40
2022-12-17T02:36:30.922Z,51.60
2022-12-17T02:37:30.924Z,55.60
2022-12-17T02:38:30.924Z,56.80
2022-12-17T02:39:30.962Z,48.70
2022-12-17T02:40:30.940Z,56.30
2022-12-17T02:41:30.951Z,47.90
2022-12-17T02:42:31.087Z,50.80
2022-12-17T02:43:31.098Z,49.80
2022-12-17T02:44:31.100Z,44.80
2022-12-17T02:45:31.240Z,51.50
2022-12-17T02:46:31.188Z,42.40
2022-12-17T02:47:30.918Z,45.30
2022-12-17T02:48:30.840Z,49.30
2022-12-17T02:49:30.937Z,43.50
2022-12-17T02:50:30.957Z,48.70
2022-12-17T02:51:30.956Z,45.00
2022-12-17T02:52:34.914Z,50.30
2022-12-17T02:53:30.805Z,48.80
2022-12-17T02:54:30.796Z,49.20
2022-12-17T02:55:30.786Z,52.10
2022-12-17T02:56:30.805Z,45.90
2022-12-17T02:57:30.783Z,50.90
2022-12-17T02:58:30.783Z,42.40
2022-12-17T02:59:30.775Z,49.50
2022-12-17T03:00:31.424Z,42.30
2022-12-17T03:01:30.961Z,44.60
2022-12-17T03:02:30.917Z,43.40
2022-12-17T03:03:30.795Z,44.10
2022-12-17T03:04:30.764Z,46.40
2022-12-17T03:05:46.289Z,42.00
2022-12-17T03:06:30.793Z,40.90
2022-12-17T03:07:30.719Z,46.50
2022-12-17T03:08:30.719Z,46.20
2022-12-17T03:09:30.718Z,40.20
2022-12-17T03:10:30.704Z,45.60
2022-12-17T03:11:30.717Z,48.70
2022-12-17T03:12:30.869Z,45.90
2022-12-17T03:13:30.877Z,46.80
2022-12-17T03:14:30.685Z,38.00
2022-12-17T03:15:30.687Z,44.60
2022-12-17T03:16:37.085Z,47.40
2022-12-17T03:17:30.685Z,41.80
2022-12-17T03:18:30.692Z,47.60
2022-12-17T03:19:30.803Z,43.80
2022-12-17T03:20:30.697Z,44.80
2022-12-17T03:21:30.825Z,45.10
2022-12-17T03:22:30.944Z,46.90
2022-12-17T03:23:31.000Z,47.60
2022-12-17T03:24:31.055Z,43.40
2022-12-17T03:25:30.983Z,46.40
2022-12-17T03:26:30.683Z,45.80
2022-12-17T03:27:30.623Z,40.00
2022-12-17T03:28:30.602Z,46.00
2022-12-17T03:29:30.604Z,43.10
2022-12-17T03:30:35.536Z,46.50
2022-12-17T03:31:30.661Z,44.30
2022-12-17T03:32:30.587Z,45.10
2022-12-17T03:33:30.580Z,44.20
2022-12-17T03:34:30.569Z,54.30
2022-12-17T03:35:30.570Z,45.70
2022-12-17T03:36:30.575Z,47.30
2022-12-17T03:37:30.564Z,49.00
2022-12-17T03:38:30.545Z,47.60
2022-12-17T03:39:30.547Z,49.80
2022-12-17T03:40:30.549Z,53.10
2022-12-17T03:41:30.566Z,67.30
2022-12-17T03:42:30.590Z,58.30
2022-12-17T03:43:30.565Z,58.30
2022-12-17T03:44:30.641Z,64.40
2022-12-17T03:45:30.532Z,58.50
2022-12-17T03:46:30.617Z,52.30
2022-12-17T03:47:30.501Z,53.30
2022-12-17T03:48:30.494Z,47.70
2022-12-17T03:49:30.492Z,51.70
2022-12-17T03:50:30.473Z,50.30
2022-12-17T03:51:30.492Z,59.70
2022-12-17T03:52:30.468Z,53.90
2022-12-17T03:53:30.509Z,54.40
2022-12-17T03:54:30.460Z,57.80
2022-12-17T03:55:30.455Z,49.30
2022-12-17T03:56:30.459Z,56.80
2022-12-17T03:57:30.441Z,61.50
2022-12-17T03:58:30.446Z,64.40
2022-12-17T03:59:30.429Z,59.10
2022-12-17T04:00:30.418Z,57.30
2022-12-17T04:01:30.530Z,59.90
2022-12-17T04:02:30.611Z,62.80
2022-12-17T04:03:30.598Z,59.10
2022-12-17T04:04:30.421Z,63.30
2022-12-17T04:05:30.536Z,60.60
2022-12-17T04:06:30.427Z,58.20
2022-12-17T04:07:31.020Z,63.80
2022-12-17T04:08:30.384Z,58.70
2022-12-17T04:09:30.375Z,56.10
2022-12-17T04:10:30.373Z,64.50
2022-12-17T04:11:30.453Z,50.90
2022-12-17T04:12:30.364Z,60.10
2022-12-17T04:13:30.363Z,58.00
2022-12-17T04:14:30.359Z,66.50
2022-12-17T04:15:30.393Z,61.80
2022-12-17T04:16:30.480Z,65.70
2022-12-17T04:17:30.357Z,69.50
2022-12-17T04:18:30.327Z,64.00
2022-12-17T04:19:30.320Z,70.00
2022-12-17T04:20:30.324Z,68.00
2022-12-17T04:21:30.317Z,66.90
2022-12-17T04:22:30.329Z,73.20
2022-12-17T04:23:30.387Z,69.30
2022-12-17T04:24:30.331Z,62.20
2022-12-17T04:25:30.308Z,71.60
2022-12-17T04:26:31.148Z,67.80
2022-12-17T04:27:30.296Z,70.20
2022-12-17T04:28:30.535Z,70.10
2022-12-17T04:29:31.215Z,70.20
2022-12-17T04:30:30.265Z,73.90
2022-12-17T04:31:30.299Z,67.40
2022-12-17T04:32:35.046Z,79.40
2022-12-17T04:33:30.256Z,74.30
2022-12-17T04:34:30.233Z,74.70
2022-12-17T04:35:30.232Z,83.70
2022-12-17T04:36:30.225Z,70.00
2022-12-17T04:37:30.513Z,74.30
2022-12-17T04:38:30.512Z,76.20
2022-12-17T04:39:30.211Z,76.30
2022-12-17T04:40:30.602Z,77.60
2022-12-17T04:41:30.532Z,71.00
2022-12-17T04:42:30.212Z,70.30
2022-12-17T04:43:30.190Z,66.10
2022-12-17T04:44:30.181Z,65.30
2022-12-17T04:45:30.185Z,64.30
2022-12-17T04:46:30.224Z,64.70
2022-12-17T04:47:30.204Z,57.90
2022-12-17T04:48:30.170Z,57.40
2022-12-17T04:49:31.087Z,57.70
2022-12-17T04:50:30.146Z,60.40
2022-12-17T04:51:30.186Z,57.40
2022-12-17T04:52:30.237Z,52.80
2022-12-17T04:53:31.206Z,63.90
2022-12-17T04:54:31.105Z,53.40
2022-12-17T04:55:30.123Z,59.30
2022-12-17T04:56:30.135Z,51.60
2022-12-17T04:57:30.654Z,49.90
2022-12-17T04:58:30.120Z,56.30
2022-12-17T04:59:30.119Z,55.70
2022-12-17T05:00:30.096Z,49.30
2022-12-17T05:01:30.220Z,51.60
2022-12-17T05:02:30.204Z,51.00
2022-12-17T05:03:30.152Z,56.10
2022-12-17T05:04:30.072Z,53.00
2022-12-17T05:05:30.071Z,55.20
2022-12-17T05:06:30.060Z,52.10
2022-12-17T05:07:30.070Z,50.20
2022-12-17T05:08:30.059Z,52.20
2022-12-17T05:09:30.094Z,50.80
2022-12-17T05:10:30.058Z,52.50
2022-12-17T05:11:30.040Z,51.60
2022-12-17T05:12:30.077Z,50.60
2022-12-17T05:13:30.036Z,49.80
2022-12-17T05:14:30.024Z,50.30
2022-12-17T05:15:30.047Z,45.30
2022-12-17T05:16:30.111Z,53.30
2022-12-17T05:17:30.076Z,49.20
2022-12-17T05:18:29.994Z,58.90
2022-12-17T05:19:29.995Z,66.80
2022-12-17T05:20:29.981Z,67.40
2022-12-17T05:21:33.348Z,84.90
2022-12-17T05:22:29.980Z,79.50
2022-12-17T05:23:29.971Z,78.40
2022-12-17T05:24:29.952Z,96.20
2022-12-17T05:25:29.952Z,85.90
2022-12-17T05:26:29.953Z,83.20
2022-12-17T05:27:29.961Z,97.90
2022-12-17T05:28:29.940Z,84.10
2022-12-17T05:29:30.041Z,99.40
2022-12-17T05:30:29.922Z,96.00
2022-12-17T05:31:30.530Z,81.20
2022-12-17T05:32:29.936Z,97.80
2022-12-17T05:33:29.926Z,86.80
2022-12-17T05:34:29.919Z,91.00
2022-12-17T05:35:29.901Z,99.70
2022-12-17T05:36:29.909Z,92.70
2022-12-17T05:37:29.937Z,84.40
2022-12-17T05:38:30.306Z,105.30
2022-12-17T05:39:29.888Z,86.60
2022-12-17T05:40:29.889Z,90.50
2022-12-17T05:41:29.884Z,89.80
2022-12-17T05:42:29.885Z,86.50
2022-12-17T05:43:29.893Z,84.60
2022-12-17T05:44:29.855Z,91.40
2022-12-17T05:45:30.563Z,82.40
2022-12-17T05:46:29.913Z,93.60
2022-12-17T05:47:29.843Z,82.40
2022-12-17T05:48:29.886Z,92.20
2022-12-17T05:49:29.829Z,97.30
2022-12-17T05:50:29.851Z,83.30
2022-12-17T05:51:30.501Z,93.60
2022-12-17T05:52:30.199Z,85.80
2022-12-17T05:53:30.209Z,85.70
2022-12-17T05:54:30.210Z,100.80
2022-12-17T05:55:30.278Z,91.60
2022-12-17T05:56:29.788Z,83.90
2022-12-17T05:57:29.849Z,88.10
2022-12-17T05:58:29.787Z,82.10
2022-12-17T05:59:29.837Z,82.50
2022-12-17T06:00:29.765Z,92.60
2022-12-17T06:01:30.100Z,80.60
2022-12-17T06:02:30.735Z,86.00
2022-12-17T06:03:29.885Z,84.40
2022-12-17T06:04:29.745Z,85.00
2022-12-17T06:05:30.304Z,91.20
2022-12-17T06:06:29.935Z,82.90
2022-12-17T06:07:29.733Z,81.80
2022-12-17T06:08:29.814Z,89.10
2022-12-17T06:09:29.734Z,69.80
2022-12-17T06:10:29.913Z,73.40
2022-12-17T06:11:29.715Z,83.50
2022-12-17T06:12:29.711Z,78.80
2022-12-17T06:13:30.140Z,73.80
2022-12-17T06:14:30.150Z,82.70
2022-12-17T06:15:29.681Z,73.20
2022-12-17T06:16:30.434Z,79.70
2022-12-17T06:17:29.671Z,69.40
2022-12-17T06:18:29.698Z,72.40
2022-12-17T06:19:30.449Z,78.30
2022-12-17T06:20:29.690Z,73.60
2022-12-17T06:21:29.657Z,77.60
2022-12-17T06:22:29.869Z,79.50
2022-12-17T06:23:30.498Z,76.90
2022-12-17T06:24:29.656Z,86.00
2022-12-17T06:25:29.926Z,77.10
2022-12-17T06:26:29.818Z,81.20
2022-12-17T06:27:29.827Z,83.40
2022-12-17T06:28:29.675Z,83.10
2022-12-17T06:29:29.604Z,88.90
2022-12-17T06:30:29.594Z,76.90
2022-12-17T06:31:29.655Z,78.40
2022-12-17T06:32:29.583Z,83.50
2022-12-17T06:33:29.611Z,77.20
2022-12-17T06:34:29.871Z,74.60
2022-12-17T06:35:29.579Z,87.70
2022-12-17T06:36:30.292Z,84.50
2022-12-17T06:37:29.601Z,76.90
2022-12-17T06:38:29.699Z,88.20
2022-12-17T06:39:29.989Z,82.50
2022-12-17T06:40:30.404Z,84.90
2022-12-17T06:41:29.922Z,85.90
2022-12-17T06:42:29.587Z,71.00
2022-12-17T06:43:29.657Z,80.30
2022-12-17T06:44:29.550Z,74.00
2022-12-17T06:45:30.436Z,80.30
2022-12-17T06:46:29.553Z,73.40
2022-12-17T06:47:30.505Z,78.30
2022-12-17T06:48:29.997Z,78.10
2022-12-17T06:49:30.446Z,74.20
2022-12-17T06:50:29.704Z,78.70
2022-12-17T06:51:30.366Z,83.60
2022-12-17T06:52:30.535Z,77.70
2022-12-17T06:53:30.033Z,72.10
2022-12-17T06:54:30.344Z,81.80
2022-12-17T06:55:30.501Z,71.10
2022-12-17T06:56:29.473Z,73.10
2022-12-17T06:57:29.494Z,81.10
2022-12-17T06:58:29.473Z,78.10
2022-12-17T06:59:29.487Z,72.40
2022-12-17T07:00:29.693Z,81.00
2022-12-17T07:01:29.771Z,66.80
2022-12-17T07:02:29.828Z,70.00
2022-12-17T07:03:29.742Z,77.30
2022-12-17T07:04:29.717Z,72.30
2022-12-17T07:05:29.508Z,81.00
2022-12-17T07:06:29.497Z,77.50
2022-12-17T07:07:29.437Z,73.10
2022-12-17T07:08:29.898Z,75.70
2022-12-17T07:09:29.937Z,81.60
2022-12-17T07:10:30.136Z,67.50
2022-12-17T07:11:30.211Z,80.30
2022-12-17T07:12:30.166Z,73.50
2022-12-17T07:13:30.145Z,80.10
2022-12-17T07:14:29.465Z,81.80
2022-12-17T07:15:30.024Z,71.40
2022-12-17T07:16:30.316Z,68.10
2022-12-17T07:17:29.344Z,79.90
2022-12-17T07:18:30.344Z,67.60
2022-12-17T07:19:30.412Z,79.10
2022-12-17T07:20:30.152Z,72.20
2022-12-17T07:21:30.310Z,73.70
2022-12-17T07:22:30.212Z,75.70
2022-12-17T07:23:29.582Z,68.70
2022-12-17T07:24:29.544Z,74.90
2022-12-17T07:25:29.601Z,79.00
2022-12-17T07:26:30.343Z,74.50
2022-12-17T07:27:29.617Z,77.90
2022-12-17T07:28:29.420Z,78.50
2022-12-17T07:29:29.919Z,73.70
2022-12-17T07:30:30.229Z,84.50
2022-12-17T07:31:29.484Z,74.10
2022-12-17T07:32:29.279Z,73.20
2022-12-17T07:33:29.266Z,86.70
2022-12-17T07:34:29.868Z,72.70
2022-12-17T07:35:29.272Z,82.30
2022-12-17T07:36:29.295Z,75.20
2022-12-17T07:37:29.236Z,85.40
2022-12-17T07:38:29.239Z,86.70
2022-12-17T07:39:29.256Z,74.50
2022-12-17T07:40:29.243Z,87.30
2022-12-17T07:41:29.265Z,81.30
2022-12-17T07:42:29.245Z,79.30
2022-12-17T07:43:29.221Z,84.30
2022-12-17T07:44:29.231Z,79.10
2022-12-17T07:45:29.370Z,85.40
2022-12-17T07:46:29.345Z,89.40
2022-12-17T07:47:29.392Z,81.80
2022-12-17T07:48:29.199Z,87.40
2022-12-17T07:49:29.201Z,87.40
2022-12-17T07:50:29.182Z,84.10
2022-12-17T07:51:29.172Z,101.00
2022-12-17T07:52:29.211Z,78.50
2022-12-17T07:53:29.150Z,95.80
2022-12-17T07:54:29.180Z,92.30
2022-12-17T07:55:29.149Z,92.00
2022-12-17T07:56:29.139Z,101.80
2022-12-17T07:57:29.488Z,94.90
2022-12-17T07:58:29.142Z,111.10
2022-12-17T07:59:29.500Z,96.60
2022-12-17T08:00:29.133Z,116.30
2022-12-17T08:01:29.205Z,142.90
2022-12-17T08:02:29.408Z,116.20
2022-12-17T08:03:29.134Z,121.00
2022-12-17T08:04:29.094Z,97.10
2022-12-17T08:05:29.107Z,134.40
2022-12-17T08:06:29.105Z,129.50
2022-12-17T08:07:29.073Z,108.60
2022-12-17T08:08:29.123Z,131.00
2022-12-17T08:09:29.064Z,122.10
2022-12-17T08:10:29.112Z,126.60
2022-12-17T08:11:29.053Z,104.40
2022-12-17T08:12:29.146Z,105.90
2022-12-17T08:13:29.050Z,136.40
2022-12-17T08:14:29.052Z,95.20
2022-12-17T08:15:29.100Z,117.80
2022-12-17T08:16:29.191Z,109.10
2022-12-17T08:17:29.151Z,95.30
2022-12-17T08:18:29.158Z,118.30
2022-12-17T08:19:29.011Z,107.50
2022-12-17T08:20:29.018Z,142.10
2022-12-17T08:21:29.002Z,125.50
2022-12-17T08:22:29.041Z,115.20
2022-12-17T08:23:28.994Z,139.60
2022-12-17T08:24:28.991Z,110.00
2022-12-17T08:25:29.007Z,155.70
2022-12-17T08:26:28.996Z,136.10
2022-12-17T08:27:29.028Z,152.50
2022-12-17T08:29:28.955Z,123.30
2022-12-17T08:30:29.002Z,162.60
2022-12-17T08:31:29.455Z,144.00
2022-12-17T08:32:28.948Z,129.30
2022-12-17T08:33:28.931Z,138.70
2022-12-17T08:34:28.931Z,130.30
2022-12-17T08:35:28.933Z,126.20
2022-12-17T08:36:28.925Z,107.50
2022-12-17T08:37:28.929Z,102.20
2022-12-17T08:38:28.913Z,110.40
2022-12-17T08:39:29.500Z,101.80
2022-12-17T08:40:28.919Z,100.50
2022-12-17T08:41:28.912Z,104.00
2022-12-17T08:42:28.929Z,107.80
2022-12-17T08:43:28.887Z,97.50
2022-12-17T08:44:28.868Z,113.40
2022-12-17T08:45:28.890Z,79.10
2022-12-17T08:46:28.949Z,113.90
2022-12-17T08:47:28.860Z,110.60
2022-12-17T08:48:28.877Z,91.50
2022-12-17T08:49:28.848Z,113.70
2022-12-17T08:50:28.864Z,87.40
2022-12-17T08:51:28.856Z,96.00
2022-12-17T08:52:29.405Z,82.70
2022-12-17T08:53:34.571Z,94.10
2022-12-17T08:54:28.823Z,84.50
2022-12-17T08:55:28.825Z,87.60
2022-12-17T08:56:29.014Z,88.30
2022-12-17T08:57:32.568Z,71.60
2022-12-17T08:58:29.013Z,88.30
2022-12-17T08:59:29.012Z,87.60
2022-12-17T09:00:28.821Z,90.80
2022-12-17T09:01:28.857Z,90.90
2022-12-17T09:02:28.993Z,83.00
2022-12-17T09:03:28.863Z,90.30
2022-12-17T09:04:28.761Z,77.70
2022-12-17T09:05:28.769Z,84.00
2022-12-17T09:06:28.752Z,92.60
2022-12-17T09:07:28.758Z,89.20
2022-12-17T09:08:29.101Z,97.30
2022-12-17T09:09:29.689Z,80.10
2022-12-17T09:10:29.579Z,86.70
2022-12-17T09:11:28.726Z,80.80
2022-12-17T09:12:28.746Z,72.40
2022-12-17T09:13:29.537Z,75.10
2022-12-17T09:14:29.715Z,71.90
2022-12-17T09:15:28.714Z,81.00
2022-12-17T09:16:28.715Z,76.70
2022-12-17T09:17:28.693Z,76.70
2022-12-17T09:18:28.683Z,76.20
2022-12-17T09:19:28.683Z,85.00
2022-12-17T09:20:29.947Z,81.80
2022-12-17T09:21:28.662Z,74.70
2022-12-17T09:22:28.663Z,85.60
2022-12-17T09:23:28.682Z,71.50
2022-12-17T09:24:28.651Z,72.00
2022-12-17T09:25:28.651Z,67.00
2022-12-17T09:26:28.659Z,78.00
2022-12-17T09:27:29.481Z,77.60
2022-12-17T09:28:28.630Z,65.40
2022-12-17T09:29:28.797Z,76.30
2022-12-17T09:30:28.691Z,70.10
2022-12-17T09:31:33.846Z,77.00
2022-12-17T09:32:28.658Z,87.00
2022-12-17T09:33:28.627Z,73.40
2022-12-17T09:34:28.637Z,81.20
2022-12-17T09:35:28.595Z,73.40
2022-12-17T09:36:28.597Z,83.40
2022-12-17T09:37:28.586Z,73.30
2022-12-17T09:38:28.573Z,78.90
2022-12-17T09:39:28.662Z,73.80
2022-12-17T09:40:28.561Z,78.70
2022-12-17T09:41:28.564Z,79.50
2022-12-17T09:42:28.573Z,76.80
2022-12-17T09:43:28.541Z,78.20
2022-12-17T09:44:28.542Z,73.90
2022-12-17T09:45:28.534Z,82.90
2022-12-17T09:46:28.727Z,69.10
2022-12-17T09:47:28.520Z,80.90
2022-12-17T09:48:32.390Z,75.80
2022-12-17T09:49:28.511Z,80.20
2022-12-17T09:50:28.501Z,81.90
2022-12-17T09:51:28.509Z,79.40
2022-12-17T09:52:28.490Z,78.70
2022-12-17T09:53:28.479Z,80.00
2022-12-17T09:54:28.477Z,88.90
2022-12-17T09:55:28.478Z,77.60
2022-12-17T09:56:28.517Z,86.30
2022-12-17T09:57:28.499Z,72.50
2022-12-17T09:58:28.459Z,85.30
2022-12-17T09:59:28.475Z,80.80
2022-12-17T10:00:29.006Z,90.50
2022-12-17T10:01:28.526Z,89.10
2022-12-17T10:02:28.619Z,81.40
2022-12-17T10:03:28.480Z,93.10
2022-12-17T10:04:28.445Z,80.50
2022-12-17T10:05:28.413Z,82.90
2022-12-17T10:06:28.438Z,78.60
2022-12-17T10:07:28.463Z,83.00
2022-12-17T10:08:28.403Z,86.30
2022-12-17T10:09:28.422Z,72.10
2022-12-17T10:10:28.391Z,85.80
2022-12-17T10:11:34.168Z,80.80
2022-12-17T10:12:28.402Z,87.90
2022-12-17T10:13:28.371Z,86.60
2022-12-17T10:14:28.370Z,72.10
2022-12-17T10:15:28.461Z,85.70
2022-12-17T10:16:28.379Z,85.60
2022-12-17T10:17:28.357Z,75.90
2022-12-17T10:18:28.908Z,81.10
2022-12-17T10:19:29.139Z,86.20
2022-12-17T10:20:28.338Z,90.20
2022-12-17T10:21:29.136Z,89.20
2022-12-17T10:22:28.337Z,82.80
2022-12-17T10:23:28.321Z,95.50
2022-12-17T10:24:28.348Z,84.30
2022-12-17T10:25:28.325Z,93.00
2022-12-17T10:26:28.304Z,89.30
2022-12-17T10:27:28.404Z,80.20
2022-12-17T10:28:28.575Z,82.00
2022-12-17T10:29:28.584Z,92.90
2022-12-17T10:30:28.302Z,79.20
2022-12-17T10:31:28.336Z,85.70
2022-12-17T10:32:28.813Z,79.30
2022-12-17T10:33:28.260Z,75.60
2022-12-17T10:34:28.252Z,86.00
2022-12-17T10:35:28.243Z,88.50
2022-12-17T10:36:28.241Z,87.40
2022-12-17T10:37:28.242Z,70.90
2022-12-17T10:38:28.231Z,86.40
2022-12-17T10:39:28.222Z,83.00
2022-12-17T10:40:28.229Z,86.60
2022-12-17T10:41:28.233Z,81.20
2022-12-17T10:42:32.960Z,89.10
2022-12-17T10:43:28.207Z,90.20
2022-12-17T10:44:28.319Z,86.50
2022-12-17T10:45:28.308Z,81.90
2022-12-17T10:46:28.327Z,76.20
2022-12-17T10:47:28.486Z,85.00
2022-12-17T10:48:28.495Z,71.30
2022-12-17T10:49:28.267Z,76.10
2022-12-17T10:50:28.548Z,72.50
2022-12-17T10:51:28.614Z,71.00
2022-12-17T10:52:28.363Z,69.20
2022-12-17T10:53:28.655Z,65.30
2022-12-17T10:54:28.371Z,61.90
2022-12-17T10:55:28.633Z,68.70
2022-12-17T10:56:28.272Z,68.50
2022-12-17T10:57:28.243Z,63.70
2022-12-17T10:58:28.180Z,68.00
2022-12-17T10:59:28.400Z,58.30
2022-12-17T11:00:28.982Z,61.80
2022-12-17T11:01:28.253Z,70.00
2022-12-17T11:02:28.657Z,62.90
2022-12-17T11:03:28.453Z,70.30
2022-12-17T11:04:28.731Z,71.70
2022-12-17T11:05:28.698Z,58.40
2022-12-17T11:06:28.448Z,74.80
2022-12-17T11:07:29.072Z,71.50
2022-12-17T11:08:28.999Z,72.20
2022-12-17T11:09:28.914Z,66.20
2022-12-17T11:10:28.480Z,66.90
2022-12-17T11:11:28.898Z,60.20
2022-12-17T11:12:30.761Z,66.10
2022-12-17T11:13:28.095Z,57.10
2022-12-17T11:14:28.083Z,58.20
2022-12-17T11:15:28.128Z,57.60
2022-12-17T11:16:28.104Z,61.40
2022-12-17T11:17:28.277Z,53.20
2022-12-17T11:18:28.284Z,64.70
2022-12-17T11:19:28.087Z,59.90
2022-12-17T11:20:28.083Z,69.10
2022-12-17T11:21:28.045Z,64.10
2022-12-17T11:22:28.093Z,63.90
2022-12-17T11:23:28.105Z,59.00
2022-12-17T11:24:28.110Z,69.50
2022-12-17T11:25:27.991Z,69.10
2022-12-17T11:26:28.181Z,71.30
2022-12-17T11:27:28.331Z,71.60
2022-12-17T11:28:28.341Z,66.60
2022-12-17T11:29:27.990Z,71.70
2022-12-17T11:30:30.915Z,70.60
2022-12-17T11:31:28.371Z,65.80
2022-12-17T11:32:28.569Z,72.70
2022-12-17T11:33:27.958Z,62.20
2022-12-17T11:34:27.968Z,68.30
2022-12-17T11:35:28.388Z,67.80
2022-12-17T11:36:35.156Z,69.00
2022-12-17T11:37:28.047Z,76.80
2022-12-17T11:38:28.027Z,61.40
2022-12-17T11:39:28.216Z,67.00
2022-12-17T11:40:28.008Z,71.40
2022-12-17T11:41:28.438Z,69.90
2022-12-17T11:42:28.439Z,72.10
2022-12-17T11:43:28.084Z,65.10
2022-12-17T11:44:27.863Z,69.20
2022-12-17T11:45:28.722Z,68.30
2022-12-17T11:46:28.511Z,77.30
2022-12-17T11:47:28.675Z,67.40
2022-12-17T11:48:28.053Z,63.90
2022-12-17T11:49:28.062Z,64.90
2022-12-17T11:50:28.801Z,71.00
2022-12-17T11:51:27.851Z,70.20
2022-12-17T11:52:27.883Z,67.10
2022-12-17T11:53:28.476Z,70.90
2022-12-17T11:54:28.107Z,72.20
2022-12-17T11:55:28.112Z,71.60
2022-12-17T11:56:28.121Z,64.50
2022-12-17T11:57:28.134Z,73.00
2022-12-17T11:58:27.815Z,71.20
2022-12-17T11:59:28.348Z,80.10
2022-12-17T12:00:27.930Z,76.60
2022-12-17T12:01:27.855Z,60.50
2022-12-17T12:02:27.997Z,67.80
2022-12-17T12:03:27.955Z,71.30
2022-12-17T12:04:27.788Z,72.30
2022-12-17T12:05:27.841Z,68.00
2022-12-17T12:06:27.863Z,67.20
2022-12-17T12:07:27.996Z,71.80
2022-12-17T12:08:27.794Z,71.70
2022-12-17T12:09:27.784Z,71.80
2022-12-17T12:10:27.697Z,62.70
2022-12-17T12:11:31.509Z,70.60
2022-12-17T12:12:27.734Z,70.80
2022-12-17T12:13:27.683Z,71.80
2022-12-17T12:14:27.670Z,68.30
2022-12-17T12:15:27.668Z,72.20
2022-12-17T12:16:27.771Z,69.10
2022-12-17T12:17:27.738Z,75.80
2022-12-17T12:18:27.651Z,68.90
2022-12-17T12:19:27.642Z,71.70
2022-12-17T12:20:27.629Z,72.40
2022-12-17T12:21:27.630Z,75.20
2022-12-17T12:22:30.770Z,68.90
2022-12-17T12:23:27.808Z,69.20
2022-12-17T12:24:27.649Z,71.90
2022-12-17T12:25:27.632Z,74.90
2022-12-17T12:26:27.599Z,73.90
2022-12-17T12:27:27.617Z,70.50
2022-12-17T12:28:27.624Z,72.10
2022-12-17T12:29:27.586Z,77.00
2022-12-17T12:30:27.896Z,68.70
2022-12-17T12:31:27.657Z,74.60
2022-12-17T12:32:27.565Z,69.50
2022-12-17T12:33:27.935Z,71.10
2022-12-17T12:34:27.551Z,69.40
2022-12-17T12:35:27.555Z,74.80
2022-12-17T12:36:27.634Z,70.20
2022-12-17T12:37:27.545Z,69.40
2022-12-17T12:38:27.562Z,68.00
2022-12-17T12:39:27.524Z,64.50
2022-12-17T12:40:27.513Z,68.50
2022-12-17T12:41:27.573Z,71.50
2022-12-17T12:42:27.521Z,69.30
2022-12-17T12:43:27.514Z,69.40
2022-12-17T12:44:27.499Z,64.80
2022-12-17T12:45:27.585Z,65.50
2022-12-17T12:46:27.472Z,64.10
2022-12-17T12:47:27.470Z,71.60
2022-12-17T12:48:27.470Z,67.20
2022-12-17T12:49:27.522Z,68.70
2022-12-17T12:50:27.449Z,60.00
2022-12-17T12:51:32.317Z,70.40
2022-12-17T12:52:27.447Z,70.20